Time;durP1;ratioP1;P1;durP2;ratioP2;P2;SDS_P1;SDS_P2;PMS_P1;PMS_P2;Temp;Humidity;BMP_temperature;BMP_pressure;BME280_temperature;BME280_humidity;BME280_pressure;Samples;Min_cycle;Max_cycle;Signal;HPM_P1;HPM_P2
2023/07/15 00:01:02;;;;;;;0.70;0.70;;;;;;;26.60;100.00;100194.59;5052292;28;20210;-71
2023/07/15 00:03:29;;;;;;;0.70;0.70;;;;;;;26.49;100.00;100195.13;5052153;28;20200;-72
2023/07/15 00:05:57;;;;;;;0.63;0.63;;;;;;;26.56;100.00;100208.97;5052185;28;20196;-72
2023/07/15 00:08:25;;;;;;;0.88;0.88;;;;;;;26.65;100.00;100200.53;5052011;28;20702;-72
2023/07/15 00:10:52;;;;;;;6.32;1.30;;;;;;;26.51;100.00;100198.56;5051835;28;20211;-71
2023/07/15 00:13:19;;;;;;;0.80;0.80;;;;;;;26.57;100.00;100200.06;5051997;28;20199;-71
2023/07/15 00:15:50;;;;;;;1.08;1.08;;;;;;;26.54;100.00;100198.41;5051932;28;20204;-72
2023/07/15 00:18:17;;;;;;;0.82;0.82;;;;;;;26.38;100.00;100201.88;5017734;28;20199;-72
2023/07/15 00:20:45;;;;;;;0.68;0.68;;;;;;;26.40;100.00;100203.53;5051567;28;20196;-71
2023/07/15 00:23:27;;;;;;;0.68;0.68;;;;;;;26.37;100.00;100208.13;5051828;28;20291;-71
2023/07/15 00:25:55;;;;;;;0.68;0.68;;;;;;;26.30;100.00;100201.38;5051321;28;20249;-71
2023/07/15 00:28:23;;;;;;;2.00;1.90;;;;;;;26.37;100.00;100213.44;5051532;28;20223;-72
2023/07/15 00:30:52;;;;;;;0.70;0.70;;;;;;;26.28;100.00;100192.63;5051687;28;20530;-71
2023/07/15 00:33:20;;;;;;;0.80;0.80;;;;;;;26.31;100.00;100209.28;5051286;28;20199;-72
2023/07/15 00:35:47;;;;;;;0.75;0.75;;;;;;;26.27;100.00;100202.38;5050911;28;20207;-71
2023/07/15 00:38:14;;;;;;;0.70;0.70;;;;;;;26.39;100.00;100206.28;5051521;28;20207;-72
2023/07/15 00:40:44;;;;;;;0.73;0.73;;;;;;;26.51;100.00;100206.53;5051463;28;20204;-73
2023/07/15 00:43:48;;;;;;;0.70;0.70;;;;;;;26.52;100.00;100207.41;5016723;28;20199;-72
2023/07/15 00:46:36;;;;;;;0.70;0.70;;;;;;;26.38;100.00;100189.44;5051519;28;20651;-73
2023/07/15 00:49:06;;;;;;;0.63;0.63;;;;;;;26.49;100.00;100207.53;5016303;28;20202;-73
2023/07/15 00:51:37;;;;;;;2.00;1.10;;;;;;;26.50;100.00;100212.81;5051382;28;20203;-72
2023/07/15 00:54:05;;;;;;;0.65;0.65;;;;;;;26.49;100.00;100207.53;5051311;28;20269;-73
2023/07/15 00:56:35;;;;;;;1.00;1.00;;;;;;;26.53;100.00;100219.78;5051306;28;20590;-72
2023/07/15 00:59:02;;;;;;;0.70;0.70;;;;;;;26.41;100.00;100207.03;5051420;28;20739;-72
2023/07/15 01:01:31;;;;;;;0.80;0.80;;;;;;;26.55;100.00;100212.56;5051149;28;20600;-72
2023/07/15 01:03:57;;;;;;;0.90;0.90;;;;;;;26.53;100.00;100211.78;5051145;28;20685;-72
2023/07/15 01:06:24;;;;;;;0.73;0.73;;;;;;;26.48;100.00;100216.44;5050948;28;20218;-73
2023/07/15 01:08:51;;;;;;;0.70;0.70;;;;;;;26.43;100.00;100213.16;5012494;28;20288;-73
2023/07/15 01:11:18;;;;;;;0.85;0.85;;;;;;;26.36;100.00;100209.09;5031154;28;20203;-72
2023/07/15 01:13:45;;;;;;;0.80;0.80;;;;;;;26.17;100.00;100209.06;5031111;28;20208;-73
2023/07/15 01:16:12;;;;;;;0.85;0.85;;;;;;;26.00;100.00;100209.84;5030958;28;20200;-72
2023/07/15 01:18:41;;;;;;;0.82;0.82;;;;;;;26.06;100.00;100212.22;5031167;28;20200;-72
2023/07/15 01:21:08;;;;;;;0.70;0.70;;;;;;;25.95;100.00;100206.53;5043664;28;20227;-72
2023/07/15 01:23:36;;;;;;;0.75;0.75;;;;;;;25.99;100.00;100208.13;5016200;28;20199;-72
2023/07/15 01:26:03;;;;;;;1.65;1.55;;;;;;;25.91;100.00;100206.72;5050796;28;20196;-72
2023/07/15 01:28:29;;;;;;;0.73;0.73;;;;;;;25.69;100.00;100182.94;5050858;28;20238;-72
2023/07/15 01:30:58;;;;;;;0.88;0.88;;;;;;;25.83;100.00;100212.38;5050737;28;20199;-72
2023/07/15 01:33:25;;;;;;;0.77;0.77;;;;;;;25.81;100.00;100222.22;5032065;28;20203;-72
2023/07/15 01:35:52;;;;;;;1.17;1.17;;;;;;;25.69;100.00;100217.47;5050659;28;20207;-72
2023/07/15 01:38:19;;;;;;;0.80;0.80;;;;;;;25.68;100.00;100221.06;5050777;28;20202;-72
2023/07/15 01:40:47;;;;;;;0.90;0.90;;;;;;;25.68;100.00;100214.91;5032084;28;20192;-71
2023/07/15 01:43:14;;;;;;;0.70;0.70;;;;;;;25.60;100.00;100221.41;5050647;28;20199;-72
2023/07/15 01:45:41;;;;;;;1.05;1.05;;;;;;;25.63;100.00;100215.94;5050423;28;20207;-71
2023/07/15 01:48:08;;;;;;;0.80;0.80;;;;;;;25.60;100.00;100216.09;5054268;28;20230;-72
2023/07/15 01:50:35;;;;;;;1.00;1.00;;;;;;;25.59;100.00;100219.69;5054853;28;20643;-72
2023/07/15 01:53:02;;;;;;;0.70;0.70;;;;;;;25.54;100.00;100216.34;5052669;28;20215;-73
2023/07/15 01:55:29;;;;;;;0.90;0.90;;;;;;;25.51;100.00;100199.69;5054596;28;20210;-73
2023/07/15 01:57:58;;;;;;;0.80;0.80;;;;;;;25.43;100.00;100192.06;5054185;28;20231;-71
2023/07/15 02:00:24;;;;;;;0.60;0.60;;;;;;;25.39;100.00;100213.50;5054477;28;20200;-73
2023/07/15 02:02:51;;;;;;;0.80;0.80;;;;;;;25.41;100.00;100231.06;5054332;28;20191;-73
2023/07/15 02:05:18;;;;;;;0.80;0.80;;;;;;;25.42;100.00;100230.16;5035786;28;20203;-74
2023/07/15 02:07:45;;;;;;;0.82;0.82;;;;;;;25.37;100.00;100224.16;5054187;28;20222;-72
2023/07/15 02:10:11;;;;;;;0.70;0.70;;;;;;;25.38;100.00;100233.00;5019414;28;20203;-72
2023/07/15 02:12:38;;;;;;;0.88;0.88;;;;;;;25.40;100.00;100223.19;5054252;28;20199;-73
2023/07/15 02:15:08;;;;;;;0.70;0.70;;;;;;;25.50;100.00;100228.03;5054487;28;20195;-72
2023/07/15 02:17:35;;;;;;;1.33;1.25;;;;;;;25.46;100.00;100230.88;5053903;28;20203;-73
2023/07/15 02:20:03;;;;;;;0.90;0.90;;;;;;;25.43;100.00;100228.34;5054109;28;20195;-73
2023/07/15 02:22:29;;;;;;;0.73;0.73;;;;;;;25.34;100.00;100229.59;5054372;28;20217;-71
2023/07/15 02:24:56;;;;;;;0.70;0.70;;;;;;;25.12;100.00;100202.25;5053996;28;20257;-72
2023/07/15 02:27:23;;;;;;;0.80;0.80;;;;;;;25.21;100.00;100222.25;5053852;28;20234;-72
2023/07/15 02:29:50;;;;;;;0.95;0.93;;;;;;;25.21;100.00;100227.53;5053683;28;20204;-72
2023/07/15 02:32:38;;;;;;;0.60;0.60;;;;;;;25.35;100.00;100228.69;5053997;28;20207;-72
2023/07/15 02:35:08;;;;;;;0.70;0.70;;;;;;;25.17;100.00;100226.81;5053957;28;20195;-72
2023/07/15 02:37:35;;;;;;;1.10;1.08;;;;;;;25.19;100.00;100238.22;5035188;28;20199;-73
2023/07/15 02:40:03;;;;;;;0.70;0.70;;;;;;;25.22;100.00;100237.25;5053789;28;20203;-73
2023/07/15 02:42:33;;;;;;;0.93;0.93;;;;;;;25.23;100.00;100246.91;5053553;28;20195;-73
2023/07/15 02:45:01;;;;;;;1.02;1.00;;;;;;;25.03;100.00;100224.75;5053604;28;20329;-73
2023/07/15 02:47:28;;;;;;;0.85;0.85;;;;;;;25.09;100.00;100243.06;5053571;28;20322;-73
2023/07/15 02:49:58;;;;;;;0.80;0.80;;;;;;;25.23;100.00;100242.47;5053481;28;20584;-73
2023/07/15 02:52:25;;;;;;;0.65;0.65;;;;;;;25.23;100.00;100246.91;5053515;28;20695;-73
2023/07/15 02:54:52;;;;;;;0.80;0.80;;;;;;;25.08;100.00;100228.06;5053254;28;20623;-73
2023/07/15 02:57:18;;;;;;;0.60;0.60;;;;;;;25.31;100.00;100250.13;5053128;28;20737;-72
2023/07/15 02:59:45;;;;;;;0.75;0.75;;;;;;;25.27;100.00;100244.06;5052774;28;20203;-73
2023/07/15 03:02:12;;;;;;;0.70;0.70;;;;;;;25.19;100.00;100254.13;5053472;28;20210;-72
2023/07/15 03:04:39;;;;;;;0.73;0.73;;;;;;;25.17;100.00;100254.22;5053416;28;20199;-73
2023/07/15 03:07:10;;;;;;;0.73;0.73;;;;;;;25.23;100.00;100246.91;5052797;28;20520;-73
2023/07/15 03:09:37;;;;;;;0.63;0.63;;;;;;;25.19;100.00;100251.50;5053144;28;20725;-73
2023/07/15 03:12:05;;;;;;;0.77;0.77;;;;;;;25.17;100.00;100230.34;5034489;28;20203;-72
2023/07/15 03:14:31;;;;;;;0.60;0.60;;;;;;;25.30;100.00;100251.03;5053269;28;20199;-72
2023/07/15 03:16:58;;;;;;;0.95;0.95;;;;;;;25.42;100.00;100253.19;5052954;28;20214;-72
2023/07/15 03:19:25;;;;;;;0.63;0.63;;;;;;;25.53;100.00;100261.56;5034074;28;20199;-72
2023/07/15 03:21:52;;;;;;;0.90;0.90;;;;;;;25.73;100.00;100258.91;5052927;28;20203;-75
2023/07/15 03:24:20;;;;;;;0.90;0.90;;;;;;;26.05;100.00;100266.28;5053192;28;20195;-71
2023/07/15 03:26:47;;;;;;;0.70;0.70;;;;;;;26.28;100.00;100267.06;5052808;28;20207;-72
2023/07/15 03:29:13;;;;;;;1.23;1.13;;;;;;;26.66;100.00;100279.41;5052731;28;20242;-72
2023/07/15 03:31:40;;;;;;;0.75;0.75;;;;;;;27.02;100.00;100269.69;5052549;28;20199;-73
2023/07/15 03:34:07;;;;;;;1.35;1.25;;;;;;;27.36;100.00;100266.16;5017716;28;20191;-72
2023/07/15 03:36:34;;;;;;;0.60;0.60;;;;;;;27.49;100.00;100254.00;5052938;28;20202;-72
2023/07/15 03:39:01;;;;;;;0.98;0.98;;;;;;;27.94;100.00;100280.03;5052713;28;20210;-71
2023/07/15 03:41:29;;;;;;;0.70;0.70;;;;;;;28.48;100.00;100288.66;5052749;28;20643;-74
2023/07/15 03:43:56;;;;;;;0.73;0.73;;;;;;;28.95;100.00;100296.72;5052464;28;20199;-73
2023/07/15 03:46:23;;;;;;;0.70;0.70;;;;;;;29.27;98.48;100294.88;5052765;28;20245;-73
2023/07/15 03:48:50;;;;;;;0.88;0.88;;;;;;;28.85;97.31;100258.16;5052482;28;20697;-72
2023/07/15 03:51:17;;;;;;;0.80;0.80;;;;;;;29.36;95.04;100289.84;5052597;28;20272;-73
2023/07/15 03:53:44;;;;;;;0.70;0.70;;;;;;;29.68;93.27;100306.63;5052183;28;20223;-73
2023/07/15 03:56:10;;;;;;;0.77;0.77;;;;;;;30.02;89.84;100303.69;5052228;28;20670;-73
2023/07/15 03:58:39;;;;;;;0.57;0.57;;;;;;;30.15;88.94;100302.91;5052238;28;20736;-72
2023/07/15 04:01:06;;;;;;;0.80;0.80;;;;;;;30.59;85.63;100303.69;5052222;28;20195;-73
2023/07/15 04:03:32;;;;;;;0.60;0.60;;;;;;;31.02;82.34;100311.63;5052164;28;20670;-72
2023/07/15 04:05:59;;;;;;;0.60;0.60;;;;;;;31.48;79.38;100304.91;5051803;28;20663;-73
2023/07/15 04:08:26;;;;;;;0.60;0.60;;;;;;;31.70;76.99;100302.53;5051674;28;20706;-72
2023/07/15 04:10:53;;;;;;;0.75;0.75;;;;;;;31.81;76.52;100317.88;5051000;28;20674;-72
2023/07/15 04:13:19;;;;;;;0.60;0.60;;;;;;;32.07;74.49;100314.25;5052562;28;20210;-73
2023/07/15 04:15:48;;;;;;;0.70;0.70;;;;;;;32.13;73.32;100321.03;5051695;28;20203;-72
2023/07/15 04:18:16;;;;;;;0.75;0.75;;;;;;;31.83;75.20;100324.84;5016433;28;20202;-72
2023/07/15 04:20:43;;;;;;;0.68;0.68;;;;;;;31.24;77.39;100319.97;5051970;28;20230;-72
2023/07/15 04:23:10;;;;;;;0.70;0.70;;;;;;;31.15;78.55;100329.47;5051734;28;20728;-71
2023/07/15 04:25:37;;;;;;;0.70;0.70;;;;;;;31.07;79.61;100333.63;5052312;28;20195;-72
2023/07/15 04:28:05;;;;;;;0.77;0.77;;;;;;;30.84;80.40;100329.72;5051351;28;20219;-72
2023/07/15 04:30:31;;;;;;;0.65;0.65;;;;;;;30.64;80.81;100325.69;5051717;28;20231;-72
2023/07/15 04:32:59;;;;;;;0.63;0.63;;;;;;;30.69;81.90;100339.59;5016617;28;20195;-72
2023/07/15 04:35:26;;;;;;;0.70;0.70;;;;;;;30.31;82.94;100335.78;5051578;28;20593;-72
2023/07/15 04:37:53;;;;;;;0.80;0.80;;;;;;;29.90;86.26;100341.84;5051493;28;20214;-72
2023/07/15 04:40:20;;;;;;;0.70;0.70;;;;;;;29.64;88.40;100349.72;5050969;28;20198;-72
2023/07/15 04:42:47;;;;;;;0.60;0.60;;;;;;;29.15;91.05;100317.78;5051290;28;20199;-72
2023/07/15 04:45:13;;;;;;;0.73;0.73;;;;;;;29.08;93.58;100340.44;5051573;28;20203;-72
2023/07/15 04:47:40;;;;;;;0.70;0.70;;;;;;;28.71;96.61;100349.69;5051292;28;20203;-72
2023/07/15 04:50:09;;;;;;;0.80;0.80;;;;;;;28.26;100.00;100338.81;5051271;28;20257;-71
2023/07/15 04:52:36;;;;;;;0.93;0.90;;;;;;;28.21;100.00;100336.41;5051194;28;20207;-71
2023/07/15 04:55:04;;;;;;;0.88;0.88;;;;;;;27.97;100.00;100338.50;5051179;28;20261;-71
2023/07/15 04:57:31;;;;;;;0.80;0.80;;;;;;;28.06;100.00;100327.38;5051376;28;20234;-71
2023/07/15 04:59:57;;;;;;;0.60;0.60;;;;;;;28.27;100.00;100335.19;5051619;28;20204;-71
2023/07/15 05:02:24;;;;;;;1.05;1.05;;;;;;;28.64;100.00;100331.41;5051248;28;20195;-71
2023/07/15 05:04:51;;;;;;;0.60;0.60;;;;;;;28.66;99.62;100335.69;5015688;28;20200;-71
2023/07/15 05:07:19;;;;;;;1.00;1.00;;;;;;;29.23;97.44;100338.72;5050991;28;20202;-71
2023/07/15 05:09:46;;;;;;;0.82;0.82;;;;;;;29.90;91.74;100341.84;5050746;28;20673;-71
2023/07/15 05:12:13;;;;;;;0.80;0.80;;;;;;;30.34;87.61;100341.81;5051061;28;20260;-71
2023/07/15 05:14:40;;;;;;;0.73;0.73;;;;;;;29.97;87.92;100340.53;5050715;28;20247;-70
2023/07/15 05:17:07;;;;;;;0.80;0.80;;;;;;;30.23;87.70;100354.13;5050955;28;20211;-72
2023/07/15 05:19:34;;;;;;;0.95;0.95;;;;;;;30.85;83.48;100358.25;4967452;28;20251;-71
2023/07/15 05:22:01;;;;;;;0.70;0.70;;;;;;;31.33;80.54;100365.78;5050500;28;20199;-70
2023/07/15 05:24:29;;;;;;;0.82;0.82;;;;;;;31.58;79.75;100353.44;5015929;28;20199;-71
2023/07/15 05:26:56;;;;;;;1.02;0.98;;;;;;;30.97;83.93;100369.03;5050460;28;20202;-71
2023/07/15 05:29:24;;;;;;;0.80;0.80;;;;;;;31.41;82.80;100341.16;5015656;28;20222;-71
2023/07/15 05:31:51;;;;;;;0.70;0.70;;;;;;;31.53;82.18;100359.13;5049256;28;20218;-70
2023/07/15 05:34:18;;;;;;;0.73;0.73;;;;;;;31.82;82.90;100363.34;5047747;28;20645;-70
2023/07/15 05:36:44;;;;;;;0.60;0.60;;;;;;;32.35;81.16;100369.56;5015430;28;20265;-70
2023/07/15 05:39:11;;;;;;;0.65;0.65;;;;;;;33.01;74.61;100368.38;5014045;28;20241;-70
2023/07/15 05:41:39;;;;;;;0.88;0.88;;;;;;;33.52;67.51;100372.63;5050411;28;20678;-70
2023/07/15 05:44:06;;;;;;;0.63;0.63;;;;;;;33.83;67.17;100380.09;5050679;28;20203;-70
2023/07/15 05:46:33;;;;;;;0.70;0.70;;;;;;;32.49;72.01;100379.31;5050719;28;20282;-69
2023/07/15 05:49:03;;;;;;;0.60;0.60;;;;;;;31.61;77.14;100364.81;5048412;28;20230;-72
2023/07/15 05:51:29;;;;;;;0.90;0.90;;;;;;;32.23;73.86;100384.69;5050729;28;20205;-73
2023/07/15 05:53:56;;;;;;;0.65;0.65;;;;;;;32.48;74.08;100356.13;5044479;28;20198;-75
2023/07/15 05:56:23;;;;;;;0.70;0.70;;;;;;;31.63;74.18;100384.38;5014130;28;20581;-76
2023/07/15 05:58:51;;;;;;;0.68;0.68;;;;;;;31.86;77.48;100378.28;5015105;28;20338;-75
2023/07/15 06:01:18;;;;;;;0.95;0.95;;;;;;;31.60;79.02;100379.22;5046995;28;20195;-75
2023/07/15 06:03:45;;;;;;;1.13;1.13;;;;;;;30.06;87.32;100378.38;5049232;28;20264;-76
2023/07/15 06:06:13;;;;;;;0.60;0.60;;;;;;;30.53;89.03;100383.53;5050329;28;20203;-76
2023/07/15 06:08:39;;;;;;;1.25;1.23;;;;;;;29.86;91.07;100379.56;5047619;28;20223;-75
2023/07/15 06:11:06;;;;;;;0.70;0.70;;;;;;;31.00;87.06;100388.56;5049005;28;20202;-73
2023/07/15 06:13:33;;;;;;;0.85;0.85;;;;;;;30.89;83.74;100390.06;5050200;28;20199;-72
2023/07/15 06:16:01;;;;;;;0.70;0.70;;;;;;;31.61;78.29;100390.78;5048986;28;20203;-75
2023/07/15 06:18:28;;;;;;;0.93;0.93;;;;;;;31.24;79.10;100386.97;5050809;28;20755;-75
2023/07/15 06:20:56;;;;;;;1.52;1.42;;;;;;;30.75;82.97;100357.13;5050019;28;20210;-75
2023/07/15 06:23:23;;;;;;;0.68;0.68;;;;;;;31.40;77.66;100395.72;5050863;28;20206;-76
2023/07/15 06:25:49;;;;;;;0.70;0.70;;;;;;;31.54;76.31;100387.66;5050484;28;20645;-76
2023/07/15 06:28:16;;;;;;;0.65;0.65;;;;;;;31.55;80.17;100391.19;5050808;28;20598;-75
2023/07/15 06:30:44;;;;;;;1.33;1.33;;;;;;;32.00;77.00;100390.75;5048989;28;20203;-73
2023/07/15 06:33:12;;;;;;;0.77;0.77;;;;;;;32.24;75.21;100393.63;5050081;28;20257;-75
2023/07/15 06:35:39;;;;;;;1.00;1.00;;;;;;;32.21;73.47;100381.28;5053808;28;20199;-71
2023/07/15 06:38:06;;;;;;;0.60;0.60;;;;;;;32.23;71.80;100373.97;5053452;28;20210;-75
2023/07/15 06:40:33;;;;;;;0.70;0.70;;;;;;;32.21;72.81;100385.78;5050186;28;20764;-72
2023/07/15 06:43:00;;;;;;;0.70;0.70;;;;;;;32.06;74.83;100386.84;5053676;28;20249;-72
2023/07/15 06:45:33;;;;;;;0.85;0.85;;;;;;;31.80;77.60;100365.31;5043370;28;20221;-71
2023/07/15 06:48:00;;;;;;;0.70;0.70;;;;;;;31.56;80.64;100380.38;5033948;28;20231;-71
2023/07/15 06:50:29;;;;;;;0.77;0.77;;;;;;;31.69;79.54;100373.22;5050914;28;20277;-71
2023/07/15 06:52:56;;;;;;;0.70;0.70;;;;;;;31.72;80.57;100378.38;5053400;28;20203;-70
2023/07/15 06:55:22;;;;;;;0.60;0.60;;;;;;;31.69;80.08;100372.34;5052567;28;20199;-71
2023/07/15 06:57:49;;;;;;;0.93;0.90;;;;;;;31.19;83.14;100383.72;5048081;28;20234;-71
2023/07/15 07:00:16;;;;;;;0.63;0.63;;;;;;;31.07;84.56;100388.09;5051844;28;20207;-70
2023/07/15 07:02:43;;;;;;;0.95;0.95;;;;;;;30.82;85.07;100383.38;5051393;28;20586;-69
2023/07/15 07:05:10;;;;;;;0.70;0.70;;;;;;;30.74;85.69;100384.84;5053083;28;20199;-70
2023/07/15 07:07:38;;;;;;;0.70;0.70;;;;;;;31.26;84.85;100383.22;5047382;28;20202;-71
2023/07/15 07:10:06;;;;;;;0.90;0.90;;;;;;;31.84;82.62;100374.88;5036523;28;20231;-72
2023/07/15 07:12:32;;;;;;;0.80;0.80;;;;;;;31.64;82.05;100385.22;5052699;28;20202;-71
2023/07/15 07:14:59;;;;;;;0.70;0.70;;;;;;;32.03;80.05;100385.19;5015280;28;20203;-71
2023/07/15 07:17:26;;;;;;;0.70;0.70;;;;;;;31.99;78.35;100385.50;5052287;28;20213;-71
2023/07/15 07:19:53;;;;;;;0.88;0.88;;;;;;;31.81;77.78;100369.72;5051777;28;20198;-75
2023/07/15 07:22:19;;;;;;;0.70;0.70;;;;;;;32.02;77.95;100390.66;5053033;28;20253;-70
2023/07/15 07:24:49;;;;;;;0.88;0.88;;;;;;;31.71;81.61;100381.16;5051209;28;20674;-76
2023/07/15 07:27:16;;;;;;;0.70;0.70;;;;;;;31.89;80.22;100378.06;5047517;28;20206;-72
2023/07/15 07:29:42;;;;;;;0.75;0.75;;;;;;;32.28;78.60;100377.19;5049472;28;20226;-72
2023/07/15 07:32:09;;;;;;;0.60;0.60;;;;;;;31.93;79.54;100386.75;5052770;28;20203;-71
2023/07/15 07:34:36;;;;;;;0.88;0.88;;;;;;;31.61;81.05;100367.50;5051008;28;20206;-73
2023/07/15 07:37:03;;;;;;;0.60;0.60;;;;;;;31.76;84.55;100379.03;5044140;28;20577;-75
2023/07/15 07:39:29;;;;;;;0.65;0.65;;;;;;;32.38;82.33;100382.75;5023135;28;20682;-76
2023/07/15 07:41:58;;;;;;;1.00;0.98;;;;;;;32.69;82.23;100384.16;5050253;28;20199;-76
2023/07/15 07:44:24;;;;;;;2.28;1.52;;;;;;;31.87;82.56;100381.84;5016328;28;20211;-72
2023/07/15 07:46:51;;;;;;;1.08;1.08;;;;;;;31.80;83.73;100373.34;5016459;28;20210;-72
2023/07/15 07:49:18;;;;;;;0.70;0.70;;;;;;;31.70;84.75;100377.63;5014777;28;20726;-73
2023/07/15 07:51:45;;;;;;;0.70;0.70;;;;;;;31.75;85.56;100355.88;5045612;28;20598;-73
2023/07/15 07:54:11;;;;;;;0.75;0.75;;;;;;;32.03;89.77;100371.78;5017067;28;20202;-75
2023/07/15 07:56:38;;;;;;;0.82;0.82;;;;;;;31.87;85.50;100360.38;5009429;28;20667;-74
2023/07/15 07:59:06;;;;;;;0.50;0.50;;;;;;;32.24;87.92;100372.13;5051742;28;20614;-75
2023/07/15 08:01:34;;;;;;;0.73;0.73;;;;;;;32.48;84.03;100373.09;5042763;28;20211;-76
2023/07/15 08:04:01;;;;;;;0.70;0.70;;;;;;;32.00;85.96;100371.13;5034187;28;20196;-73
2023/07/15 08:06:28;;;;;;;0.73;0.73;;;;;;;32.11;87.48;100376.63;5047623;28;20203;-75
2023/07/15 08:08:55;;;;;;;0.88;0.88;;;;;;;31.82;87.86;100354.47;5045804;28;20219;-72
2023/07/15 08:11:22;;;;;;;0.73;0.73;;;;;;;32.16;88.66;100371.81;5032127;28;20662;-75
2023/07/15 08:13:48;;;;;;;0.70;0.70;;;;;;;32.28;87.31;100338.75;5006747;28;20214;-75
2023/07/15 08:16:33;;;;;;;0.80;0.80;;;;;;;32.34;85.59;100325.75;5046999;28;20195;-73
2023/07/15 08:19:01;;;;;;;0.63;0.63;;;;;;;32.44;85.37;100340.22;5051002;28;20210;-74
2023/07/15 08:21:28;;;;;;;0.65;0.65;;;;;;;32.69;85.41;100354.59;5050133;28;20206;-73
2023/07/15 08:23:55;;;;;;;0.70;0.70;;;;;;;32.34;84.60;100365.16;5006974;28;20203;-74
2023/07/15 08:26:23;;;;;;;0.60;0.60;;;;;;;32.55;84.69;100358.25;5044887;28;20206;-73
2023/07/15 08:28:50;;;;;;;0.75;0.75;;;;;;;32.42;83.61;100370.84;5047814;28;20202;-76
2023/07/15 08:31:17;;;;;;;0.65;0.65;;;;;;;31.82;85.69;100290.94;5048217;28;20649;-77
2023/07/15 08:33:45;;;;;;;1.38;1.27;;;;;;;32.08;85.95;100355.38;5047822;28;20267;-75
2023/07/15 08:36:12;;;;;;;0.70;0.70;;;;;;;32.16;84.76;100361.06;5049691;28;20293;-73
2023/07/15 08:38:39;;;;;;;0.98;0.98;;;;;;;32.11;86.38;100357.84;5049437;28;20207;-73
2023/07/15 08:41:05;;;;;;;0.98;0.98;;;;;;;32.27;84.44;100369.25;5016318;28;20211;-72
2023/07/15 08:43:32;;;;;;;0.60;0.60;;;;;;;32.16;85.56;100363.75;5049204;28;20195;-72
2023/07/15 08:46:02;;;;;;;0.68;0.68;;;;;;;32.34;84.94;100363.34;5030960;28;20221;-72
2023/07/15 08:48:29;;;;;;;0.75;0.75;;;;;;;31.84;83.95;100301.56;5049087;28;20214;-71
2023/07/15 08:50:59;;;;;;;0.90;0.90;;;;;;;32.10;82.78;100345.41;5048011;28;20392;-70
2023/07/15 08:53:28;;;;;;;0.75;0.75;;;;;;;32.48;82.78;100362.34;5043456;28;20666;-71
2023/07/15 08:55:56;;;;;;;0.70;0.70;;;;;;;32.90;78.92;100343.16;5045951;28;20202;-71
2023/07/15 08:58:23;;;;;;;0.63;0.63;;;;;;;33.25;75.05;100371.97;5050064;28;20321;-70
2023/07/15 09:00:51;;;;;;;0.73;0.73;;;;;;;33.34;71.06;100368.63;5050750;28;20635;-72
2023/07/15 09:03:19;;;;;;;0.60;0.60;;;;;;;33.44;71.45;100369.63;5046997;28;20635;-73
2023/07/15 09:05:48;;;;;;;0.73;0.73;;;;;;;32.91;71.33;100370.88;5050592;28;20666;-72
2023/07/15 09:08:16;;;;;;;0.50;0.50;;;;;;;33.24;72.29;100378.34;5050802;28;20609;-72
2023/07/15 09:10:53;;;;;;;0.70;0.70;;;;;;;33.29;67.41;100370.78;5002359;28;20730;-72
2023/07/15 09:13:24;;;;;;;0.60;0.60;;;;;;;33.75;65.55;100368.19;5049401;28;20297;-72
2023/07/15 09:15:51;;;;;;;0.80;0.80;;;;;;;33.63;64.63;100353.88;5048692;28;20281;-71
2023/07/15 09:18:19;;;;;;;0.70;0.70;;;;;;;33.69;66.48;100379.44;5049345;28;20666;-71
2023/07/15 09:20:46;;;;;;;0.77;0.77;;;;;;;33.44;67.58;100390.28;5050392;28;20297;-71
2023/07/15 09:23:13;;;;;;;0.60;0.60;;;;;;;33.82;67.16;100391.81;5050089;28;20276;-71
2023/07/15 09:25:49;;;;;;;0.70;0.70;;;;;;;34.65;64.84;100386.25;5049697;28;20207;-72
2023/07/15 09:28:16;;;;;;;0.50;0.50;;;;;;;35.20;60.38;100385.38;5049437;28;20198;-72
2023/07/15 09:30:42;;;;;;;0.70;0.70;;;;;;;35.77;58.62;100395.88;5041829;28;20230;-77
2023/07/15 09:33:26;;;;;;;0.70;0.70;;;;;;;35.45;57.40;100395.84;5050530;28;20207;-77
2023/07/15 09:35:53;;;;;;;0.93;0.93;;;;;;;35.62;56.34;100397.16;5031476;28;20273;-78
2023/07/15 09:38:21;;;;;;;0.60;0.60;;;;;;;35.61;58.61;100390.91;5044898;28;20225;-78
2023/07/15 09:40:50;;;;;;;1.00;1.00;;;;;;;34.91;62.66;100392.25;5046319;28;20682;-74
2023/07/15 09:43:17;;;;;;;0.65;0.65;;;;;;;34.37;63.82;100374.09;5008209;28;20268;-75
2023/07/15 09:45:45;;;;;;;0.60;0.60;;;;;;;34.43;64.56;100356.59;5013038;28;20679;-75
2023/07/15 09:48:13;;;;;;;0.70;0.70;;;;;;;34.97;62.67;100386.34;5030486;28;20195;-75
2023/07/15 09:50:41;;;;;;;0.50;0.50;;;;;;;34.74;61.69;100359.47;5044288;28;20222;-75
2023/07/15 09:53:08;;;;;;;0.63;0.63;;;;;;;34.79;60.35;100373.41;5049155;28;20202;-80
2023/07/15 09:55:37;;;;;;;0.60;0.60;;;;;;;34.82;60.83;100378.53;5050878;28;20209;-76
2023/07/15 09:58:10;;;;;;;0.70;0.70;;;;;;;34.97;60.03;100378.28;5049746;28;20721;-77
2023/07/15 10:00:43;;;;;;;0.70;0.70;;;;;;;35.32;57.91;100376.25;5048527;28;20210;-76
2023/07/15 10:03:18;;;;;;;1.02;1.02;;;;;;;35.07;56.45;100373.88;5041618;28;20671;-75
2023/07/15 10:05:47;;;;;;;0.73;0.73;;;;;;;35.08;54.90;100372.84;5050593;28;20252;-78
2023/07/15 10:08:14;;;;;;;0.90;0.90;;;;;;;34.90;55.19;100368.97;5049608;28;20198;-77
2023/07/15 10:10:42;;;;;;;2.30;2.15;;;;;;;34.90;56.42;100368.97;5054874;28;20261;-79
2023/07/15 10:13:11;;;;;;;0.80;0.80;;;;;;;34.76;54.08;100365.56;5050635;28;20240;-75
2023/07/15 10:15:39;;;;;;;0.70;0.70;;;;;;;34.57;52.65;100356.38;5034346;28;20233;-75
2023/07/15 10:18:14;;;;;;;0.80;0.80;;;;;;;34.59;52.61;100347.19;5050722;28;20670;-75
2023/07/15 10:20:47;;;;;;;0.60;0.60;;;;;;;34.87;54.67;100347.66;5045152;28;20289;-75
2023/07/15 10:23:14;;;;;;;0.80;0.80;;;;;;;34.68;52.24;100330.28;5048048;28;20203;-75
2023/07/15 10:25:43;;;;;;;0.95;0.95;;;;;;;34.78;51.37;100349.28;5017880;28;20649;-71
2023/07/15 10:28:13;;;;;;;0.80;0.80;;;;;;;34.81;53.75;100357.13;5052920;28;20306;-70
2023/07/15 10:30:40;;;;;;;0.70;0.70;;;;;;;34.83;52.39;100342.53;5053457;28;20292;-70
2023/07/15 10:33:11;;;;;;;0.73;0.73;;;;;;;34.64;51.59;100353.06;5052326;28;20666;-71
2023/07/15 10:35:48;;;;;;;0.70;0.70;;;;;;;34.91;50.98;100354.53;5053084;28;20230;-72
2023/07/15 10:38:23;;;;;;;0.88;0.88;;;;;;;34.69;49.63;100344.63;5051559;28;20210;-69
2023/07/15 10:40:51;;;;;;;1.45;1.40;;;;;;;34.73;50.44;100355.03;5018628;28;20304;-70
2023/07/15 10:43:20;;;;;;;0.85;0.85;;;;;;;34.73;49.12;100330.78;5053588;28;20204;-77
2023/07/15 10:45:52;;;;;;;0.50;0.50;;;;;;;34.84;50.77;100341.56;5052019;28;20203;-73
2023/07/15 10:48:19;;;;;;;0.90;0.90;;;;;;;34.74;48.87;100334.34;5053435;28;20281;-71
2023/07/15 10:50:48;;;;;;;0.80;0.80;;;;;;;34.85;49.19;100332.47;5051108;28;20305;-71
2023/07/15 10:53:21;;;;;;;1.17;1.08;;;;;;;35.16;52.86;100324.59;5015612;28;20292;-72
2023/07/15 10:55:55;;;;;;;0.63;0.63;;;;;;;35.42;49.81;100344.00;5047080;28;20257;-74
2023/07/15 10:58:23;;;;;;;0.90;0.88;;;;;;;35.29;47.41;100345.00;5053493;28;20262;-73
2023/07/15 11:00:50;;;;;;;1.95;1.60;;;;;;;35.41;49.17;100331.47;5046358;28;20205;-74
2023/07/15 11:03:18;;;;;;;0.82;0.82;;;;;;;35.59;50.34;100330.78;5045732;28;20647;-70
2023/07/15 11:05:44;;;;;;;0.88;0.88;;;;;;;35.66;49.77;100334.69;5049801;28;20199;-73
2023/07/15 11:08:11;;;;;;;0.85;0.85;;;;;;;35.17;49.47;100291.25;5051879;28;20570;-73
2023/07/15 11:10:38;;;;;;;0.60;0.60;;;;;;;35.25;47.89;100332.75;5047165;28;20245;-72
2023/07/15 11:13:12;;;;;;;1.25;1.25;;;;;;;35.47;46.75;100331.81;5052576;28;20203;-73
2023/07/15 11:15:40;;;;;;;0.70;0.70;;;;;;;35.23;47.97;100339.28;5052626;28;20234;-73
2023/07/15 11:18:14;;;;;;;0.70;0.70;;;;;;;35.11;49.27;100334.84;5017962;28;20195;-70
2023/07/15 11:20:41;;;;;;;0.70;0.70;;;;;;;34.62;48.88;100333.50;5049766;28;20198;-70
2023/07/15 11:23:08;;;;;;;0.93;0.93;;;;;;;34.79;49.94;100335.66;5049827;28;20202;-72
2023/07/15 11:25:34;;;;;;;0.60;0.60;;;;;;;35.02;49.49;100325.72;5050522;28;20207;-71